Pagrindinis puslapis
METAR-TAF:

METAR-TAF

Oro uostai :

Cape Newenham, Aliaska, Jungtinės Amerikos Valstijos

platuma: 58-39N, ilguma: 162-04W, Aukštis: 165 m

Dabartinis oras

Ataskaita buvo paskelbta 48 minutes, ne 17:18 UTC
Vėjas 32 kt iš Šiaurės su gūsio iki 40 kt, svyruoja nuo Vakarų/Šiaurės Vakarų ir Šiaurės/Šiaurės Rytų
Temperatūra -23°C
Drėgmė 70%
Slėgis 989 hPa
Matomumas: 2.4 km
Apsiniaukę ne aukštis 1700 ft
sniegas, rūkana

METAR: PAEH 291718Z AUTO 35032G40KT 300V020 1 1/2SM -SHSN BR OVC017 M23/M27 A2920 RMK AO2 SLP916

Laikas: 09:06 (18:06 UTC)


TAF: trūkstamas

Orai ataskaitas ir orų prognozės (METAR, TAF).

turimą stotys yra geltonos ir raudonos taškus žemėlapyje.

Perkelti pele per norėdami pamatyti stoties vardą.

Tada spustelėkite, norėdami matyti oro stebėjimo ir prognozės.

Norėdami pakeisti žemėlapį: spustelėkite ant žalios mygtukų su juodo kryžiaus žemyn,; žalią mygtuką su brūkšneliu, jei norite nutolinti; arba žalių rodyklių gretimoms žemėlapius.


METAR-TAF: